createdAt,value
2022-11-28T00:01:44.717Z,11.55
2022-11-28T00:04:13.823Z,11.98
2022-11-28T00:06:45.359Z,11.85
2022-11-28T00:09:15.344Z,11.68
2022-11-28T00:11:46.096Z,12.10
2022-11-28T00:14:15.444Z,12.10
2022-11-28T00:16:44.129Z,12.02
2022-11-28T00:19:13.640Z,12.07
2022-11-28T00:21:42.796Z,12.60
2022-11-28T00:24:11.410Z,12.80
2022-11-28T00:26:41.823Z,12.65
2022-11-28T00:29:11.917Z,13.20
2022-11-28T00:31:43.770Z,13.82
2022-11-28T00:34:14.132Z,13.73
2022-11-28T00:36:44.340Z,13.90
2022-11-28T00:39:12.824Z,13.82
2022-11-28T00:41:41.112Z,13.68
2022-11-28T00:44:11.378Z,14.10
2022-11-28T00:46:39.984Z,14.45
2022-11-28T00:49:08.306Z,14.88
2022-11-28T00:51:37.024Z,14.57
2022-11-28T00:54:06.631Z,14.40
2022-11-28T00:56:37.432Z,14.73
2022-11-28T00:59:07.169Z,14.52
2022-11-28T01:01:39.305Z,14.93
2022-11-28T01:04:10.627Z,15.05
2022-11-28T01:06:40.695Z,15.90
2022-11-28T01:09:11.497Z,14.35
2022-11-28T01:11:40.657Z,14.70
2022-11-28T01:14:10.548Z,15.18
2022-11-28T01:16:40.842Z,13.95
2022-11-28T01:19:09.338Z,15.75
2022-11-28T01:21:37.988Z,14.80
2022-11-28T01:24:06.828Z,14.93
2022-11-28T01:26:35.273Z,15.07
2022-11-28T01:29:03.558Z,14.82
2022-11-28T01:31:32.175Z,15.10
2022-11-28T01:34:01.909Z,13.95
2022-11-28T01:36:30.566Z,14.45
2022-11-28T01:38:59.214Z,15.27
2022-11-28T01:41:29.437Z,14.27
2022-11-28T01:44:33.881Z,13.80
2022-11-28T01:47:02.175Z,14.48
2022-11-28T01:49:37.108Z,14.52
2022-11-28T01:52:08.869Z,14.77
2022-11-28T01:54:39.636Z,14.48
2022-11-28T01:57:10.336Z,14.23
2022-11-28T01:59:43.369Z,13.85
2022-11-28T02:02:20.984Z,14.43
2022-11-28T02:04:52.169Z,15.52
2022-11-28T02:07:21.236Z,13.70
2022-11-28T02:09:49.849Z,13.60
2022-11-28T02:12:29.078Z,13.25
2022-11-28T02:15:14.031Z,12.93
2022-11-28T02:17:57.217Z,12.73
2022-11-28T02:20:43.120Z,12.63
2022-11-28T02:23:19.385Z,12.10
2022-11-28T02:26:26.201Z,12.65
2022-11-28T02:29:26.660Z,12.43
2022-11-28T02:32:26.548Z,13.05
2022-11-28T02:35:02.513Z,12.02
2022-11-28T02:37:38.267Z,13.00
2022-11-28T02:40:11.938Z,13.95
2022-11-28T02:42:51.606Z,12.10
2022-11-28T02:45:28.587Z,12.18
2022-11-28T02:48:04.280Z,11.75
2022-11-28T02:50:38.795Z,13.38
2022-11-28T02:53:11.205Z,12.43
2022-11-28T02:55:41.824Z,12.15
2022-11-28T02:58:11.292Z,12.80
2022-11-28T03:00:43.591Z,12.35
2022-11-28T03:03:34.706Z,13.10
2022-11-28T03:06:09.287Z,12.13
2022-11-28T03:08:54.751Z,12.60
2022-11-28T03:11:38.670Z,12.00
2022-11-28T03:14:16.680Z,12.70
2022-11-28T03:16:50.029Z,12.23
2022-11-28T03:19:25.609Z,12.73
2022-11-28T03:22:03.869Z,12.88
2022-11-28T03:24:37.484Z,13.00
2022-11-28T03:27:14.815Z,12.80
2022-11-28T03:29:47.915Z,13.18
2022-11-28T03:32:19.418Z,12.60
2022-11-28T03:34:54.844Z,13.90
2022-11-28T03:37:27.809Z,12.80
2022-11-28T03:40:00.546Z,14.23
2022-11-28T03:42:32.662Z,13.05
2022-11-28T03:45:07.613Z,13.75
2022-11-28T03:47:41.678Z,12.80
2022-11-28T03:50:18.826Z,13.60
2022-11-28T03:52:51.716Z,13.23
2022-11-28T03:55:24.845Z,12.93
2022-11-28T03:57:59.120Z,12.73
2022-11-28T04:00:27.809Z,13.80
2022-11-28T04:03:03.305Z,13.45
2022-11-28T04:05:40.850Z,13.52
2022-11-28T04:08:15.109Z,13.35
2022-11-28T04:10:46.630Z,14.02
2022-11-28T04:13:22.589Z,13.45
2022-11-28T04:15:57.575Z,13.50
2022-11-28T04:18:30.493Z,13.82
2022-11-28T04:21:07.775Z,13.57
2022-11-28T04:23:38.948Z,13.77
2022-11-28T04:26:12.800Z,12.95
2022-11-28T04:28:42.936Z,14.05
2022-11-28T04:31:11.744Z,14.85
2022-11-28T04:33:45.617Z,13.77
2022-11-28T04:36:18.921Z,14.07
2022-11-28T04:38:56.379Z,14.52
2022-11-28T04:41:30.890Z,13.32
2022-11-28T04:46:36.842Z,12.30
2022-11-28T04:49:05.243Z,13.88
2022-11-28T04:51:40.548Z,13.82
2022-11-28T04:54:16.119Z,13.82
2022-11-28T04:56:47.655Z,14.10
2022-11-28T04:59:17.171Z,12.43
2022-11-28T05:01:49.139Z,13.15
2022-11-28T05:04:18.106Z,13.52
2022-11-28T05:06:47.924Z,12.90
2022-11-28T05:09:16.289Z,13.00
2022-11-28T05:11:44.649Z,13.75
2022-11-28T05:14:12.950Z,13.70
2022-11-28T05:16:41.606Z,13.45
2022-11-28T05:19:09.967Z,13.30
2022-11-28T05:21:38.377Z,14.13
2022-11-28T05:24:09.284Z,13.77
2022-11-28T05:26:38.239Z,14.38
2022-11-28T05:29:08.146Z,13.70
2022-11-28T05:31:38.124Z,14.93
2022-11-28T05:34:06.682Z,16.05
2022-11-28T05:36:35.087Z,14.80
2022-11-28T05:39:03.401Z,13.73
2022-11-28T05:41:35.288Z,14.65
2022-11-28T05:44:06.420Z,14.70
2022-11-28T05:46:37.223Z,14.77
2022-11-28T05:49:05.588Z,13.55
2022-11-28T05:51:35.610Z,14.07
2022-11-28T05:54:04.088Z,14.45
2022-11-28T05:56:38.089Z,14.05
2022-11-28T05:59:09.332Z,15.40
2022-11-28T06:01:37.704Z,15.23
2022-11-28T06:04:06.230Z,14.63
2022-11-28T06:06:36.353Z,14.13
2022-11-28T06:09:06.608Z,15.48
2022-11-28T06:11:37.123Z,14.45
2022-11-28T06:14:05.897Z,14.98
2022-11-28T06:16:34.412Z,14.45
2022-11-28T06:19:05.054Z,14.85
2022-11-28T06:21:34.211Z,14.90
2022-11-28T06:24:02.708Z,15.75
2022-11-28T06:26:31.162Z,15.23
2022-11-28T06:29:00.850Z,15.52
2022-11-28T06:31:30.979Z,17.15
2022-11-28T06:33:59.699Z,17.15
2022-11-28T06:36:28.871Z,15.38
2022-11-28T06:38:57.525Z,15.63
2022-11-28T06:41:25.874Z,15.75
2022-11-28T06:43:54.328Z,15.98
2022-11-28T06:46:24.688Z,14.70
2022-11-28T06:48:53.392Z,15.40
2022-11-28T06:51:22.264Z,15.10
2022-11-28T06:53:51.389Z,16.73
2022-11-28T06:56:20.987Z,15.65
2022-11-28T06:58:55.300Z,16.20
2022-11-28T07:01:26.610Z,15.90
2022-11-28T07:03:55.528Z,16.13
2022-11-28T07:06:26.042Z,15.85
2022-11-28T07:08:56.610Z,17.42
2022-11-28T07:11:26.975Z,15.90
2022-11-28T07:13:56.636Z,17.20
2022-11-28T07:16:30.765Z,17.33
2022-11-28T07:18:59.972Z,16.50
2022-11-28T07:21:29.506Z,16.60
2022-11-28T07:23:59.533Z,17.17
2022-11-28T07:26:28.108Z,18.67
2022-11-28T07:28:58.242Z,16.17
2022-11-28T07:31:32.133Z,17.58
2022-11-28T07:34:03.228Z,17.02
2022-11-28T07:36:32.052Z,18.10
2022-11-28T07:39:04.266Z,16.60
2022-11-28T07:41:32.952Z,17.42
2022-11-28T07:44:04.517Z,16.98
2022-11-28T07:46:35.084Z,17.58
2022-11-28T07:49:04.459Z,17.85
2022-11-28T07:51:34.443Z,18.02
2022-11-28T07:54:03.228Z,17.05
2022-11-28T07:57:10.354Z,19.92
2022-11-28T07:59:22.411Z,20.45
2022-11-28T08:01:53.748Z,22.83
2022-11-28T08:04:22.872Z,24.05
2022-11-28T08:06:51.458Z,25.02
2022-11-28T08:09:19.808Z,21.67
2022-11-28T08:11:48.134Z,18.58
2022-11-28T08:14:16.484Z,18.75
2022-11-28T08:16:45.840Z,16.42
2022-11-28T08:19:15.701Z,17.77
2022-11-28T08:21:46.651Z,18.63
2022-11-28T08:24:15.286Z,15.43
2022-11-28T08:26:43.617Z,17.50
2022-11-28T08:29:12.114Z,16.90
2022-11-28T08:31:40.708Z,17.30
2022-11-28T08:34:12.618Z,16.63
2022-11-28T08:36:59.720Z,17.75
2022-11-28T08:39:37.090Z,16.55
2022-11-28T08:42:05.465Z,18.55
2022-11-28T08:44:33.838Z,16.67
2022-11-28T08:47:02.197Z,17.67
2022-11-28T08:49:30.506Z,17.60
2022-11-28T08:52:00.226Z,17.45
2022-11-28T08:54:28.597Z,15.73
2022-11-28T08:56:56.947Z,17.05
2022-11-28T08:59:25.377Z,16.60
2022-11-28T09:01:54.050Z,16.52
2022-11-28T09:04:34.503Z,17.35
2022-11-28T09:07:04.592Z,14.68
2022-11-28T09:09:33.103Z,15.88
2022-11-28T09:12:01.498Z,16.25
2022-11-28T09:14:29.830Z,15.35
2022-11-28T09:16:58.408Z,16.35
2022-11-28T09:19:27.066Z,15.63
2022-11-28T09:21:57.819Z,14.75
2022-11-28T09:24:27.868Z,15.73
2022-11-28T09:26:56.362Z,16.25
2022-11-28T09:29:24.914Z,15.63
2022-11-28T09:31:53.321Z,16.00
2022-11-28T09:34:21.726Z,15.50
2022-11-28T09:36:50.189Z,15.00
2022-11-28T09:39:18.602Z,16.13
2022-11-28T09:42:05.854Z,15.63
2022-11-28T09:44:41.756Z,17.70
2022-11-28T09:47:18.247Z,16.20
2022-11-28T09:49:51.315Z,15.50
2022-11-28T09:52:32.552Z,15.07
2022-11-28T09:55:10.950Z,16.30
2022-11-28T09:57:44.586Z,14.27
2022-11-28T10:00:18.764Z,15.13
2022-11-28T10:05:33.587Z,15.93
2022-11-28T10:08:16.109Z,16.23
2022-11-28T10:10:53.789Z,16.08
2022-11-28T10:13:47.048Z,16.30
2022-11-28T10:16:27.538Z,16.00
2022-11-28T10:19:00.832Z,15.80
2022-11-28T10:21:36.243Z,16.63
2022-11-28T10:24:10.255Z,17.25
2022-11-28T10:26:42.435Z,16.65
2022-11-28T10:29:25.375Z,15.73
2022-11-28T10:31:56.842Z,15.27
2022-11-28T10:34:31.322Z,16.42
2022-11-28T10:37:04.743Z,16.90
2022-11-28T10:39:33.479Z,15.65
2022-11-28T10:42:13.916Z,17.15
2022-11-28T10:44:58.217Z,16.85
2022-11-28T10:47:54.371Z,16.67
2022-11-28T10:50:32.283Z,16.40
2022-11-28T10:53:05.368Z,14.77
2022-11-28T10:55:42.703Z,16.35
2022-11-28T10:58:17.049Z,15.05
2022-11-28T11:03:19.387Z,14.23
2022-11-28T11:05:47.774Z,16.17
2022-11-28T11:08:20.659Z,15.88
2022-11-28T11:10:51.150Z,16.25
2022-11-28T11:13:22.294Z,16.00
2022-11-28T11:15:58.594Z,16.58
2022-11-28T11:18:29.626Z,15.65
2022-11-28T11:21:16.203Z,16.65
2022-11-28T11:23:44.964Z,15.65
2022-11-28T11:26:23.503Z,15.55
2022-11-28T11:28:52.559Z,15.55
2022-11-28T11:31:25.956Z,15.80
2022-11-28T11:34:02.878Z,15.00
2022-11-28T11:36:34.149Z,14.60
2022-11-28T11:39:08.719Z,15.63
2022-11-28T11:41:37.750Z,15.10
2022-11-28T11:44:29.738Z,17.23
2022-11-28T11:47:03.458Z,15.55
2022-11-28T11:49:34.666Z,14.43
2022-11-28T11:52:05.603Z,14.68
2022-11-28T11:54:34.286Z,14.73
2022-11-28T11:57:31.212Z,14.40
2022-11-28T11:59:57.011Z,14.73
2022-11-28T12:02:36.242Z,14.65
2022-11-28T12:05:11.138Z,15.10
2022-11-28T12:07:43.666Z,14.27
2022-11-28T12:10:16.303Z,14.68
2022-11-28T12:12:45.025Z,14.82
2022-11-28T12:15:17.211Z,14.57
2022-11-28T12:18:01.760Z,15.23
2022-11-28T12:20:42.891Z,14.52
2022-11-28T12:23:26.094Z,14.23
2022-11-28T12:26:01.061Z,14.30
2022-11-28T12:28:45.865Z,14.50
2022-11-28T12:31:25.234Z,14.90
2022-11-28T12:34:07.109Z,15.35
2022-11-28T12:36:44.547Z,16.00
2022-11-28T12:39:19.221Z,15.88
2022-11-28T12:42:19.208Z,15.75
2022-11-28T12:45:00.842Z,14.73
2022-11-28T12:47:41.481Z,15.65
2022-11-28T12:50:23.579Z,15.70
2022-11-28T12:53:01.587Z,16.05
2022-11-28T12:55:37.838Z,16.80
2022-11-28T12:58:12.466Z,19.15
2022-11-28T13:00:51.673Z,16.20
2022-11-28T13:03:33.639Z,14.90
2022-11-28T13:06:17.924Z,14.82
2022-11-28T13:08:57.934Z,15.02
2022-11-28T13:11:42.551Z,15.10
2022-11-28T13:14:22.749Z,15.32
2022-11-28T13:16:52.640Z,15.25
2022-11-28T13:19:31.823Z,13.95
2022-11-28T13:22:10.500Z,16.13
2022-11-28T13:24:44.304Z,15.40
2022-11-28T13:27:22.662Z,15.25
2022-11-28T13:29:59.806Z,16.00
2022-11-28T13:32:36.957Z,16.05
2022-11-28T13:35:06.904Z,16.80
2022-11-28T13:40:42.426Z,18.90
2022-11-28T13:43:19.031Z,16.77
2022-11-28T13:45:53.953Z,16.50
2022-11-28T13:49:14.529Z,16.20
2022-11-28T13:51:43.481Z,14.93
2022-11-28T13:54:52.631Z,16.30
2022-11-28T13:57:24.943Z,16.10
2022-11-28T13:59:57.359Z,15.40
2022-11-28T14:02:37.278Z,15.68
2022-11-28T14:05:18.755Z,15.75
2022-11-28T14:07:51.839Z,17.42
2022-11-28T14:10:58.346Z,16.95
2022-11-28T14:13:52.336Z,17.63
2022-11-28T14:16:32.526Z,20.58
2022-11-28T14:19:19.539Z,20.65
2022-11-28T14:22:01.910Z,20.33
2022-11-28T14:24:47.780Z,20.17
2022-11-28T14:27:22.830Z,21.17
2022-11-28T14:29:55.290Z,21.23
2022-11-28T14:32:31.681Z,21.13
2022-11-28T14:35:00.937Z,23.15
2022-11-28T14:37:52.815Z,24.13
2022-11-28T14:41:08.963Z,24.33
2022-11-28T14:43:40.302Z,24.27
2022-11-28T14:46:32.547Z,23.25
2022-11-28T14:49:22.697Z,23.20
2022-11-28T14:52:39.143Z,20.50
2022-11-28T14:55:18.386Z,23.02
2022-11-28T14:57:57.138Z,23.55
2022-11-28T15:00:50.198Z,21.25
2022-11-28T15:03:34.275Z,23.63
2022-11-28T15:06:09.143Z,21.42
2022-11-28T15:09:01.099Z,22.88
2022-11-28T15:11:47.618Z,22.67
2022-11-28T15:14:22.893Z,23.13
2022-11-28T15:16:55.811Z,22.05
2022-11-28T15:19:27.693Z,22.20
2022-11-28T15:21:57.290Z,22.48
2022-11-28T15:24:28.895Z,22.10
2022-11-28T15:26:59.216Z,21.13
2022-11-28T15:29:29.462Z,21.45
2022-11-28T15:31:59.787Z,22.27
2022-11-28T15:34:30.900Z,23.55
2022-11-28T15:37:01.611Z,22.00
2022-11-28T15:39:35.074Z,23.02
2022-11-28T15:42:06.066Z,22.10
2022-11-28T15:44:36.484Z,23.13
2022-11-28T15:47:17.256Z,22.98
2022-11-28T15:49:46.320Z,22.10
2022-11-28T15:52:18.399Z,22.33
2022-11-28T15:54:51.485Z,22.17
2022-11-28T15:57:21.532Z,21.45
2022-11-28T15:59:50.393Z,24.75
2022-11-28T16:02:23.853Z,22.38
2022-11-28T16:04:56.234Z,21.57
2022-11-28T16:07:24.843Z,21.95
2022-11-28T16:09:59.763Z,22.58
2022-11-28T16:12:29.484Z,22.58
2022-11-28T16:15:01.868Z,21.70
2022-11-28T16:17:34.485Z,23.00
2022-11-28T16:20:04.570Z,25.15
2022-11-28T16:22:37.403Z,24.25
2022-11-28T16:25:19.842Z,22.35
2022-11-28T16:27:52.933Z,21.92
2022-11-28T16:30:38.586Z,23.70
2022-11-28T16:33:40.373Z,23.00
2022-11-28T16:36:22.243Z,23.60
2022-11-28T16:38:53.292Z,22.45
2022-11-28T16:41:24.086Z,22.85
2022-11-28T16:43:56.392Z,23.00
2022-11-28T16:46:27.130Z,23.42
2022-11-28T16:48:58.996Z,22.63
2022-11-28T16:51:33.927Z,23.63
2022-11-28T16:54:24.105Z,22.90
2022-11-28T16:56:58.486Z,22.77
2022-11-28T17:01:55.248Z,22.42
2022-11-28T17:04:27.347Z,24.70
2022-11-28T17:06:57.580Z,26.08
2022-11-28T17:09:26.039Z,26.67
2022-11-28T17:11:59.234Z,24.35
2022-11-28T17:14:27.559Z,24.15
2022-11-28T17:16:55.928Z,26.17
2022-11-28T17:19:25.684Z,24.40
2022-11-28T17:21:55.759Z,24.52
2022-11-28T17:24:25.929Z,23.80
2022-11-28T17:26:55.587Z,25.77
2022-11-28T17:29:25.225Z,26.83
2022-11-28T17:31:55.284Z,24.42
2022-11-28T17:34:26.751Z,24.27
2022-11-28T17:36:55.080Z,25.23
2022-11-28T17:39:23.416Z,26.25
2022-11-28T17:41:52.338Z,25.67
2022-11-28T17:44:22.332Z,27.08
2022-11-28T17:46:52.252Z,27.17
2022-11-28T17:49:21.287Z,26.15
2022-11-28T17:51:51.396Z,26.40
2022-11-28T17:54:22.482Z,29.40
2022-11-28T17:56:52.602Z,27.92
2022-11-28T17:59:23.626Z,27.00
2022-11-28T18:01:52.063Z,27.53
2022-11-28T18:04:20.707Z,28.48
2022-11-28T18:06:51.600Z,28.45
2022-11-28T18:09:20.035Z,27.27
2022-11-28T18:11:48.393Z,26.38
2022-11-28T18:14:19.655Z,28.48
2022-11-28T18:16:48.479Z,27.63
2022-11-28T18:19:16.861Z,27.90
2022-11-28T18:21:45.297Z,27.92
2022-11-28T18:24:15.216Z,27.45
2022-11-28T18:26:43.904Z,28.73
2022-11-28T18:29:12.287Z,26.45
2022-11-28T18:31:40.991Z,28.77
2022-11-28T18:34:10.533Z,27.83
2022-11-28T18:36:39.963Z,27.83
2022-11-28T18:39:10.369Z,29.02
2022-11-28T18:41:44.356Z,27.58
2022-11-28T18:44:12.962Z,29.40
2022-11-28T18:46:41.691Z,31.52
2022-11-28T18:49:12.621Z,30.13
2022-11-28T18:51:40.932Z,39.47
2022-11-28T18:54:10.698Z,29.42
2022-11-28T18:56:40.926Z,26.20
2022-11-28T18:59:12.443Z,33.80
2022-11-28T19:01:42.611Z,29.67
2022-11-28T19:04:13.245Z,28.75
2022-11-28T19:06:42.949Z,31.30
2022-11-28T19:09:13.318Z,28.38
2022-11-28T19:11:44.110Z,27.63
2022-11-28T19:14:16.178Z,29.45
2022-11-28T19:16:45.209Z,29.92
2022-11-28T19:19:14.831Z,31.35
2022-11-28T19:21:43.291Z,29.58
2022-11-28T19:24:13.472Z,29.58
2022-11-28T19:26:43.195Z,29.77
2022-11-28T19:29:11.716Z,28.77
2022-11-28T19:31:42.157Z,31.58
2022-11-28T19:34:15.417Z,28.13
2022-11-28T19:36:46.017Z,29.27
2022-11-28T19:39:18.090Z,29.15
2022-11-28T19:41:48.698Z,27.52
2022-11-28T19:44:30.716Z,28.90
2022-11-28T19:46:59.155Z,27.30
2022-11-28T19:49:27.495Z,28.95
2022-11-28T19:51:55.963Z,27.73
2022-11-28T19:54:24.370Z,28.30
2022-11-28T19:56:54.090Z,26.30
2022-11-28T19:59:22.450Z,28.58
2022-11-28T20:01:52.612Z,28.80
2022-11-28T20:04:21.396Z,28.02
2022-11-28T20:06:49.779Z,28.27
2022-11-28T20:09:18.132Z,28.15
2022-11-28T20:11:46.572Z,29.85
2022-11-28T20:14:18.431Z,27.75
2022-11-28T20:16:48.042Z,25.88
2022-11-28T20:19:17.725Z,27.75
2022-11-28T20:21:46.619Z,27.25
2022-11-28T20:24:15.045Z,27.50
2022-11-28T20:26:44.665Z,27.30
2022-11-28T20:29:15.068Z,29.08
2022-11-28T20:31:48.388Z,27.38
2022-11-28T20:34:27.128Z,28.70
2022-11-28T20:36:59.395Z,27.15
2022-11-28T20:39:34.312Z,27.33
2022-11-28T20:42:02.670Z,28.10
2022-11-28T20:44:31.292Z,28.30
2022-11-28T20:47:14.066Z,27.15
2022-11-28T20:49:43.932Z,28.30
2022-11-28T20:52:15.919Z,29.38
2022-11-28T20:54:46.769Z,30.48
2022-11-28T20:57:22.373Z,27.80
2022-11-28T20:59:51.100Z,28.63
2022-11-28T21:02:20.876Z,28.92
2022-11-28T21:04:49.427Z,31.13
2022-11-28T21:07:18.480Z,28.92
2022-11-28T21:09:47.212Z,29.33
2022-11-28T21:12:20.831Z,28.17
2022-11-28T21:14:49.590Z,28.90
2022-11-28T21:17:18.218Z,27.50
2022-11-28T21:19:48.221Z,29.45
2022-11-28T21:22:16.623Z,28.58
2022-11-28T21:24:49.100Z,26.70
2022-11-28T21:27:17.815Z,28.02
2022-11-28T21:29:46.640Z,27.58
2022-11-28T21:32:16.198Z,31.13
2022-11-28T21:34:44.545Z,29.02
2022-11-28T21:37:14.259Z,27.35
2022-11-28T21:39:42.923Z,26.25
2022-11-28T21:42:16.116Z,26.52
2022-11-28T21:44:47.488Z,26.52
2022-11-28T21:47:16.056Z,28.00
2022-11-28T21:49:44.707Z,26.55
2022-11-28T21:52:16.664Z,28.42
2022-11-28T21:54:45.291Z,28.20
2022-11-28T21:57:13.676Z,26.10
2022-11-28T21:59:42.349Z,29.25
2022-11-28T22:02:14.081Z,28.27
2022-11-28T22:04:44.340Z,26.58
2022-11-28T22:07:14.590Z,26.90
2022-11-28T22:09:43.071Z,27.65
2022-11-28T22:12:11.393Z,27.00
2022-11-28T22:14:39.836Z,26.25
2022-11-28T22:17:08.293Z,25.73
2022-11-28T22:19:36.671Z,26.33
2022-11-28T22:22:05.061Z,25.05
2022-11-28T22:24:34.775Z,25.85
2022-11-28T22:27:03.138Z,26.88
2022-11-28T22:29:31.537Z,26.13
2022-11-28T22:31:59.965Z,26.13
2022-11-28T22:34:28.346Z,27.45
2022-11-28T22:36:56.654Z,27.42
2022-11-28T22:39:25.000Z,26.15
2022-11-28T22:41:54.679Z,26.45
2022-11-28T22:44:23.094Z,28.70
2022-11-28T22:46:51.490Z,28.52
2022-11-28T22:49:19.870Z,30.08
2022-11-28T22:51:48.255Z,27.38
2022-11-28T22:54:16.564Z,27.92
2022-11-28T22:56:44.971Z,33.42
2022-11-28T22:59:16.369Z,32.80
2022-11-28T23:01:44.917Z,33.50
2022-11-28T23:04:13.689Z,32.30
2022-11-28T23:06:42.502Z,32.65
2022-11-28T23:09:13.841Z,32.53
2022-11-28T23:11:42.214Z,28.85
2022-11-28T23:14:15.283Z,29.48
2022-11-28T23:16:45.650Z,29.90
2022-11-28T23:19:16.867Z,29.48
2022-11-28T23:21:47.012Z,27.75
2022-11-28T23:24:17.534Z,28.40
2022-11-28T23:26:46.096Z,28.90
2022-11-28T23:29:16.172Z,28.92
2022-11-28T23:31:45.178Z,28.70
2022-11-28T23:34:14.285Z,29.33
2022-11-28T23:36:44.648Z,25.98
2022-11-28T23:39:15.159Z,26.10
2022-11-28T23:41:44.139Z,25.52
2022-11-28T23:44:13.519Z,25.27
2022-11-28T23:46:43.869Z,24.23
2022-11-28T23:49:12.502Z,24.15
2022-11-28T23:51:41.117Z,24.90
2022-11-28T23:54:10.736Z,23.52
2022-11-28T23:56:41.134Z,24.40
2022-11-28T23:59:11.515Z,23.33
